Time;durP1;ratioP1;P1;durP2;ratioP2;P2;SDS_P1;SDS_P2;PMS_P1;PMS_P2;Temp;Humidity;BMP_temperature;BMP_pressure;BME280_temperature;BME280_humidity;BME280_pressure;Samples;Min_cycle;Max_cycle;Signal;HPM_P1;HPM_P2
2024/01/11 00:00:59;;;;;;;21.30;11.93;;;;;;;-4.04;91.86;101055.63;10249956;28;20043;-75
2024/01/11 00:06:01;;;;;;;18.67;11.25;;;;;;;-3.94;92.01;101068.22;10250803;28;20047;-75
2024/01/11 00:11:02;;;;;;;22.15;11.38;;;;;;;-3.96;91.40;101071.75;10251152;28;20050;-75
2024/01/11 00:16:03;;;;;;;24.33;11.32;;;;;;;-4.01;91.81;101063.28;10250904;28;20050;-73
2024/01/11 00:21:03;;;;;;;29.40;12.75;;;;;;;-4.05;91.91;101056.53;10251278;28;20504;-75
2024/01/11 00:26:04;;;;;;;27.98;14.10;;;;;;;-4.02;91.77;101062.44;10251080;28;20050;-74
2024/01/11 00:31:05;;;;;;;25.90;14.05;;;;;;;-4.07;91.66;101066.97;10250989;28;20098;-74
2024/01/11 00:36:06;;;;;;;29.58;15.23;;;;;;;-4.27;92.11;101010.63;10250815;28;20526;-73
2024/01/11 00:41:06;;;;;;;32.50;16.90;;;;;;;-4.06;92.28;101044.47;10251018;28;20077;-74
2024/01/11 00:46:07;;;;;;;31.65;15.82;;;;;;;-4.03;92.23;101060.78;10250526;28;20043;-74
2024/01/11 00:51:08;;;;;;;28.35;15.38;;;;;;;-4.10;92.27;101029.91;10251001;28;20098;-74
2024/01/11 00:56:19;;;;;;;28.45;13.85;;;;;;;-3.89;91.95;101044.66;10250981;28;20103;-74
2024/01/11 01:01:19;;;;;;;30.00;15.40;;;;;;;-3.94;91.96;101033.63;10250278;28;20098;-73
2024/01/11 01:06:20;;;;;;;30.13;15.65;;;;;;;-4.02;92.35;100991.53;10256595;28;20105;-75
2024/01/11 01:11:21;;;;;;;28.27;15.05;;;;;;;-3.65;92.39;101044.63;10256672;28;20062;-75
2024/01/11 01:16:22;;;;;;;28.23;15.05;;;;;;;-3.60;92.87;101027.13;10257068;28;20051;-74
2024/01/11 01:21:22;;;;;;;26.55;14.70;;;;;;;-3.59;91.95;101026.19;10257025;28;20492;-75
2024/01/11 01:26:23;;;;;;;24.65;14.13;;;;;;;-3.84;92.27;100985.63;10256799;28;20039;-75
2024/01/11 01:31:23;;;;;;;27.08;14.82;;;;;;;-3.46;92.46;101037.81;10255988;28;20043;-75
2024/01/11 01:36:24;;;;;;;28.40;15.07;;;;;;;-3.56;92.40;101016.56;10255594;28;20039;-75
2024/01/11 01:41:25;;;;;;;31.40;13.73;;;;;;;-3.52;92.68;101019.88;10252059;28;20059;-75
2024/01/11 01:46:27;;;;;;;31.20;13.77;;;;;;;-3.33;92.79;101051.13;10255786;28;20043;-76
2024/01/11 01:51:31;;;;;;;23.50;13.77;;;;;;;-3.31;92.99;101044.13;10255153;28;20419;-75
2024/01/11 01:56:32;;;;;;;25.70;13.93;;;;;;;-3.38;93.27;101006.31;10255441;28;20042;-75
2024/01/11 02:01:34;;;;;;;26.70;14.60;;;;;;;-3.32;92.72;101016.44;10255412;28;20047;-75
2024/01/11 02:06:35;;;;;;;28.02;14.40;;;;;;;-3.37;93.08;101011.44;10255216;28;20062;-74
2024/01/11 02:11:37;;;;;;;30.80;15.50;;;;;;;-3.32;92.56;101014.72;10254104;29;20035;-76
2024/01/11 02:16:38;;;;;;;25.08;13.98;;;;;;;-3.41;92.52;100999.50;10253717;28;20040;-77
2024/01/11 02:21:40;;;;;;;27.45;13.88;;;;;;;-3.61;92.53;100960.50;10254587;28;20499;-75
2024/01/11 02:26:59;;;;;;;26.35;13.88;;;;;;;-3.22;93.30;101013.41;10253817;28;20039;-76
2024/01/11 02:32:02;;;;;;;27.73;13.20;;;;;;;-3.24;93.41;101015.22;10252338;28;20055;-76
2024/01/11 02:37:05;;;;;;;27.88;14.32;;;;;;;-3.54;93.24;100954.16;10247002;28;20506;-76
2024/01/11 02:42:06;;;;;;;27.88;14.98;;;;;;;-3.17;93.16;101000.25;10247539;28;20423;-76
2024/01/11 02:47:06;;;;;;;31.15;13.80;;;;;;;-3.15;93.14;101003.59;10251681;28;20043;-76
2024/01/11 02:52:07;;;;;;;30.80;14.40;;;;;;;-3.22;93.06;100995.22;10253378;28;20035;-76
2024/01/11 02:57:08;;;;;;;24.58;13.95;;;;;;;-3.40;93.16;100943.19;10252798;28;20538;-76
2024/01/11 03:02:09;;;;;;;26.17;13.75;;;;;;;-2.97;92.80;101001.16;10253777;28;20126;-75
2024/01/11 03:07:09;;;;;;;28.42;14.65;;;;;;;-3.04;93.12;101005.75;10242104;28;20066;-77
2024/01/11 03:12:10;;;;;;;24.55;14.05;;;;;;;-3.22;93.18;100950.22;10252036;28;20043;-76
2024/01/11 03:17:11;;;;;;;24.95;14.35;;;;;;;-3.04;93.44;100969.38;10252592;28;20043;-74
2024/01/11 03:22:12;;;;;;;23.65;14.00;;;;;;;-2.96;93.57;100976.81;10253318;28;20039;-77
2024/01/11 03:27:13;;;;;;;27.42;14.43;;;;;;;-2.96;92.86;100975.09;10250074;28;20075;-75
2024/01/11 03:32:14;;;;;;;25.33;14.05;;;;;;;-2.92;93.29;100979.25;10244235;28;20095;-76
2024/01/11 03:37:14;;;;;;;27.52;14.63;;;;;;;-2.93;93.49;100977.56;10251141;28;20039;-76
2024/01/11 03:42:15;;;;;;;22.52;13.60;;;;;;;-2.91;93.29;100961.88;10251261;28;20059;-72
2024/01/11 03:47:16;;;;;;;28.80;15.15;;;;;;;-2.94;93.40;100952.47;10251165;28;20055;-75
2024/01/11 03:52:17;;;;;;;28.20;14.18;;;;;;;-2.88;93.24;100959.16;10251241;28;20074;-74
2024/01/11 03:57:18;;;;;;;28.17;14.32;;;;;;;-3.17;93.21;100905.81;10251761;28;20039;-78
2024/01/11 04:02:19;;;;;;;27.83;14.68;;;;;;;-2.83;93.10;100950.25;10252320;28;20043;-73
2024/01/11 04:07:19;;;;;;;28.75;14.73;;;;;;;-2.83;93.38;100947.63;10251433;28;20043;-73
2024/01/11 04:12:20;;;;;;;27.85;15.63;;;;;;;-2.81;94.22;100927.63;10250462;28;20043;-73
2024/01/11 04:17:21;;;;;;;27.38;14.30;;;;;;;-2.83;93.68;100929.44;10250836;28;20416;-74
2024/01/11 04:22:22;;;;;;;29.77;14.43;;;;;;;-2.82;94.54;100928.50;10248685;28;20043;-75
2024/01/11 04:27:23;;;;;;;26.42;14.80;;;;;;;-2.89;93.68;100908.06;10245369;28;20039;-75
2024/01/11 04:32:24;;;;;;;33.78;14.40;;;;;;;-3.16;94.51;100872.00;10244743;28;20036;-75
2024/01/11 04:37:24;;;;;;;31.70;16.55;;;;;;;-2.96;94.63;100904.03;10231452;28;20051;-79
2024/01/11 04:42:27;;;;;;;28.60;15.25;;;;;;;-3.25;94.62;100883.63;10238831;29;20424;-75
2024/01/11 04:47:28;;;;;;;28.55;15.13;;;;;;;-3.35;94.18;100894.47;10218053;29;20054;-73
2024/01/11 04:52:29;;;;;;;28.85;15.82;;;;;;;-3.39;94.49;100908.50;10255000;28;20055;-75
2024/01/11 04:57:30;;;;;;;28.33;14.20;;;;;;;-3.72;94.32;100872.66;10257524;28;20035;-75
2024/01/11 05:02:30;;;;;;;44.17;19.15;;;;;;;-3.51;94.43;100902.09;10257209;28;20047;-74
2024/01/11 05:07:31;;;;;;;44.88;21.05;;;;;;;-3.56;94.45;100876.31;10257332;28;20050;-75
2024/01/11 05:12:32;;;;;;;42.88;20.20;;;;;;;-3.71;94.29;100838.00;10257515;28;20039;-74
2024/01/11 05:17:33;;;;;;;39.03;19.88;;;;;;;-3.27;94.97;100890.63;10257663;28;20082;-75
2024/01/11 05:22:33;;;;;;;37.05;19.45;;;;;;;-3.11;94.21;100895.16;10256849;28;20039;-75
2024/01/11 05:27:34;;;;;;;32.70;15.50;;;;;;;-2.91;94.31;100891.69;10257545;28;20039;-74
2024/01/11 05:32:35;;;;;;;31.15;14.80;;;;;;;-2.83;94.04;100893.03;10256258;28;20047;-75
2024/01/11 05:37:36;;;;;;;26.75;15.40;;;;;;;-2.65;93.62;100893.13;10256379;28;20039;-75
2024/01/11 05:42:37;;;;;;;29.63;14.30;;;;;;;-2.56;93.63;100888.34;10255092;28;20056;-76
2024/01/11 05:47:38;;;;;;;26.33;14.05;;;;;;;-2.70;93.06;100853.47;10255261;28;20102;-74
2024/01/11 05:52:39;;;;;;;31.42;16.85;;;;;;;-2.52;93.32;100878.63;10256561;28;20039;-75
2024/01/11 05:57:40;;;;;;;29.10;15.82;;;;;;;-2.37;92.69;100861.44;10255894;28;20039;-77
2024/01/11 06:02:40;;;;;;;35.53;18.23;;;;;;;-2.25;92.15;100862.63;10255556;28;20097;-75
2024/01/11 06:07:41;;;;;;;33.95;18.05;;;;;;;-2.04;91.69;100863.34;10254688;28;20054;-74
2024/01/11 06:12:42;;;;;;;31.40;16.65;;;;;;;-1.95;91.33;100803.84;10255792;28;20054;-76
2024/01/11 06:17:43;;;;;;;26.70;14.15;;;;;;;-1.67;90.56;100787.69;10254843;28;20050;-76
2024/01/11 06:22:44;;;;;;;26.45;14.35;;;;;;;-1.60;89.77;100730.91;10252812;29;20113;-76
2024/01/11 06:27:46;;;;;;;31.77;13.40;;;;;;;-0.76;88.60;100832.41;10253854;28;20043;-76
2024/01/11 06:32:47;;;;;;;19.77;12.60;;;;;;;-0.71;88.17;100807.78;10254558;28;20043;-74
2024/01/11 06:37:48;;;;;;;21.25;12.75;;;;;;;-0.66;87.32;100789.25;10253222;28;20448;-76
2024/01/11 06:42:48;;;;;;;20.10;12.63;;;;;;;-0.48;87.02;100776.94;10253149;28;20113;-75
2024/01/11 06:47:49;;;;;;;20.73;12.55;;;;;;;-0.27;86.74;100774.88;10253621;28;20082;-76
2024/01/11 06:52:50;;;;;;;19.33;11.77;;;;;;;-0.36;85.59;100759.72;10253362;28;20039;-75
2024/01/11 06:57:50;;;;;;;18.27;11.55;;;;;;;-0.38;84.94;100753.78;10253440;28;20035;-76
2024/01/11 07:02:53;;;;;;;19.05;12.02;;;;;;;-0.39;85.22;100749.47;10252395;28;20035;-76
2024/01/11 07:07:54;;;;;;;17.15;11.27;;;;;;;-0.48;84.75;100690.81;10252950;28;20419;-76
2024/01/11 07:12:54;;;;;;;16.00;10.98;;;;;;;0.11;84.67;100733.47;10252079;28;20039;-75
2024/01/11 07:17:55;;;;;;;13.77;9.38;;;;;;;0.04;83.01;100718.25;10252853;28;20089;-75
2024/01/11 07:22:56;;;;;;;13.98;8.73;;;;;;;-0.09;83.22;100694.63;10251888;29;20046;-76
2024/01/11 07:27:57;;;;;;;14.60;8.60;;;;;;;0.18;83.06;100710.41;10251858;29;20420;-77
2024/01/11 07:32:57;;;;;;;15.10;8.60;;;;;;;0.17;82.58;100687.84;10252089;29;20047;-75
2024/01/11 07:37:58;;;;;;;11.38;7.25;;;;;;;0.31;82.18;100671.34;10252084;29;20058;-76
2024/01/11 07:42:59;;;;;;;14.32;7.72;;;;;;;0.68;81.83;100664.66;10251816;29;20051;-76
2024/01/11 07:48:00;;;;;;;14.20;7.05;;;;;;;0.78;80.37;100660.53;10252226;29;20071;-76
2024/01/11 07:53:01;;;;;;;15.50;7.43;;;;;;;0.54;79.83;100599.31;10251153;29;20043;-76
2024/01/11 07:58:01;;;;;;;10.07;6.80;;;;;;;0.93;79.63;100637.78;10251357;29;20047;-77
2024/01/11 08:03:02;;;;;;;11.30;7.15;;;;;;;0.84;78.82;100591.31;10250882;29;20039;-76
2024/01/11 08:08:04;;;;;;;11.82;6.93;;;;;;;0.87;78.53;100563.16;10250740;29;20066;-76
2024/01/11 08:13:04;;;;;;;9.75;6.07;;;;;;;1.16;78.25;100597.03;10255350;28;20126;-76
2024/01/11 08:18:05;;;;;;;9.00;6.03;;;;;;;1.21;77.88;100571.41;10259652;29;20134;-76
2024/01/11 08:23:06;;;;;;;10.63;6.32;;;;;;;1.50;77.83;100566.00;10259143;29;20447;-76
2024/01/11 08:28:07;;;;;;;11.40;5.93;;;;;;;1.55;77.99;100559.47;10258319;29;20138;-76
2024/01/11 08:33:08;;;;;;;9.55;5.00;;;;;;;1.49;77.03;100497.06;10258684;29;20035;-76
2024/01/11 08:38:09;;;;;;;8.77;5.22;;;;;;;1.87;76.53;100524.16;10257708;29;20047;-75
2024/01/11 08:43:10;;;;;;;8.45;4.75;;;;;;;1.64;76.13;100474.22;10257989;29;20067;-74
2024/01/11 08:48:10;;;;;;;8.02;5.22;;;;;;;2.00;76.24;100491.72;10257665;29;20054;-75
2024/01/11 08:53:11;;;;;;;10.27;4.55;;;;;;;2.04;76.22;100458.31;10258058;29;20071;-74
2024/01/11 08:58:12;;;;;;;9.23;5.47;;;;;;;2.27;75.25;100483.69;10257532;29;20126;-76
2024/01/11 09:03:15;;;;;;;9.13;5.35;;;;;;;2.29;74.84;100465.22;10272796;28;20047;-75
2024/01/11 09:08:16;;;;;;;10.35;5.97;;;;;;;2.27;74.84;100454.84;10257382;28;20130;-75
2024/01/11 09:13:16;;;;;;;9.95;5.68;;;;;;;2.48;75.11;100451.59;10256639;29;20129;-75
2024/01/11 09:18:18;;;;;;;9.55;5.75;;;;;;;2.79;75.02;100449.31;10256673;29;20169;-76
2024/01/11 09:23:18;;;;;;;13.95;5.70;;;;;;;2.95;74.22;100439.31;10256238;28;20138;-77
2024/01/11 09:28:19;;;;;;;13.45;6.70;;;;;;;2.86;74.37;100392.78;10256602;29;20488;-76
2024/01/11 09:33:20;;;;;;;11.45;6.18;;;;;;;3.02;73.80;100413.44;10255951;29;20073;-76
2024/01/11 09:38:21;;;;;;;9.82;6.35;;;;;;;2.98;74.01;100404.97;10255895;29;20050;-76
2024/01/11 09:43:22;;;;;;;9.63;5.80;;;;;;;2.79;73.11;100345.22;10255434;29;20055;-76
2024/01/11 09:48:24;;;;;;;9.88;5.65;;;;;;;3.19;72.79;100394.59;10256284;29;20047;-75
2024/01/11 09:53:26;;;;;;;10.10;6.18;;;;;;;3.28;72.28;100377.31;10255189;29;20412;-75
2024/01/11 09:58:27;;;;;;;10.45;5.85;;;;;;;3.52;72.32;100364.84;10255147;28;20447;-75
2024/01/11 10:03:28;;;;;;;11.88;6.28;;;;;;;3.52;71.14;100350.91;10255556;28;20078;-75
2024/01/11 10:08:30;;;;;;;12.57;6.97;;;;;;;3.52;71.66;100322.84;10255511;28;20527;-75
2024/01/11 10:13:32;;;;;;;10.38;6.57;;;;;;;3.77;71.20;100320.84;10254437;28;20122;-75
2024/01/11 10:18:33;;;;;;;14.75;6.97;;;;;;;3.76;70.96;100282.41;10254339;28;20035;-75
2024/01/11 10:23:34;;;;;;;15.05;7.07;;;;;;;3.84;71.32;100301.00;10253991;29;20501;-75
2024/01/11 10:28:38;;;;;;;11.27;6.28;;;;;;;3.71;71.25;100300.31;10254132;29;20046;-75
2024/01/11 10:33:39;;;;;;;9.98;6.03;;;;;;;3.73;71.79;100287.91;10253976;28;20042;-76
2024/01/11 10:38:40;;;;;;;9.85;5.65;;;;;;;3.78;70.56;100291.00;10253466;29;20125;-73
2024/01/11 10:43:41;;;;;;;11.90;5.40;;;;;;;3.89;70.90;100278.66;10254186;29;20110;-73
2024/01/11 10:48:44;;;;;;;11.82;5.63;;;;;;;4.20;70.30;100264.75;10253777;29;20051;-74
2024/01/11 10:53:46;;;;;;;11.05;5.32;;;;;;;4.66;68.67;100216.09;10253232;29;20043;-74
2024/01/11 10:58:49;;;;;;;7.88;4.82;;;;;;;5.24;69.13;100256.59;10252771;29;20042;-74
2024/01/11 11:03:52;;;;;;;8.68;3.90;;;;;;;4.87;69.84;100260.78;10252585;28;20054;-74
2024/01/11 11:08:53;;;;;;;5.97;3.53;;;;;;;4.53;70.78;100261.88;10252373;28;20043;-74
2024/01/11 11:13:57;;;;;;;8.18;4.10;;;;;;;4.10;71.34;100223.47;10252263;29;20395;-74
2024/01/11 11:18:58;;;;;;;10.97;4.77;;;;;;;4.19;71.49;100265.69;10252925;29;20035;-74
2024/01/11 11:23:59;;;;;;;10.07;4.22;;;;;;;4.04;72.18;100254.69;10252450;29;20385;-74
2024/01/11 11:29:00;;;;;;;7.25;4.13;;;;;;;3.74;73.13;100239.66;10252303;29;20055;-75
2024/01/11 11:34:03;;;;;;;7.07;3.08;;;;;;;3.71;74.91;100250.41;10252786;29;20492;-75
2024/01/11 11:39:04;;;;;;;5.00;3.03;;;;;;;3.48;75.11;100249.69;10251655;29;20070;-75
2024/01/11 11:44:06;;;;;;;5.95;3.30;;;;;;;3.03;76.39;100200.75;10251270;29;20087;-75
2024/01/11 11:49:06;;;;;;;7.10;3.88;;;;;;;2.89;77.25;100198.41;10250607;29;20515;-74
2024/01/11 11:54:11;;;;;;;11.02;6.38;;;;;;;3.13;77.72;100246.31;10251040;29;20055;-74
2024/01/11 11:59:12;;;;;;;;;;;;;;;3.20;78.08;100255.38;10252218;29;20102;-74
2024/01/11 12:04:14;;;;;;;7.47;3.95;;;;;;;3.00;78.57;100243.00;10251968;28;20342;-74
2024/01/11 12:09:21;;;;;;;7.13;4.18;;;;;;;2.76;79.83;100230.03;10251416;28;20075;-76
2024/01/11 12:14:22;;;;;;;7.28;3.60;;;;;;;2.64;79.95;100234.44;10250820;29;20050;-77
2024/01/11 12:19:23;;;;;;;7.10;4.22;;;;;;;2.57;81.14;100222.75;10251261;29;20422;-76
2024/01/11 12:24:24;;;;;;;8.68;4.18;;;;;;;2.34;82.09;100166.03;10250446;29;20035;-76
2024/01/11 12:29:25;;;;;;;7.53;4.68;;;;;;;2.38;82.79;100152.56;10248854;29;20047;-74
2024/01/11 12:34:28;;;;;;;6.65;4.10;;;;;;;2.50;84.08;100187.47;10250302;28;20451;-76
2024/01/11 12:39:29;;;;;;;7.97;4.38;;;;;;;2.38;83.84;100196.31;10250367;29;20039;-76
2024/01/11 12:44:30;;;;;;;7.38;4.80;;;;;;;2.27;85.27;100197.13;10249941;29;20058;-75
2024/01/11 12:49:30;;;;;;;8.15;4.45;;;;;;;2.13;85.70;100186.88;10248877;29;20047;-76
2024/01/11 12:54:33;;;;;;;9.52;5.43;;;;;;;2.21;86.53;100201.03;10240132;29;20043;-76
2024/01/11 12:59:34;;;;;;;8.60;4.78;;;;;;;2.28;86.78;100183.09;10254681;28;20440;-75
2024/01/11 13:04:35;;;;;;;9.52;5.55;;;;;;;2.35;86.53;100184.25;10257850;29;20130;-75
2024/01/11 13:09:36;;;;;;;18.35;5.40;;;;;;;2.36;87.18;100171.97;10257264;29;20129;-75
2024/01/11 13:14:39;;;;;;;8.52;4.80;;;;;;;2.41;87.18;100162.81;10256611;29;20055;-75
2024/01/11 13:19:40;;;;;;;9.07;4.37;;;;;;;2.41;87.39;100161.97;10257145;28;20077;-75
2024/01/11 13:24:40;;;;;;;10.73;5.28;;;;;;;2.04;88.03;100104.59;10257115;28;20039;-75
2024/01/11 13:29:41;;;;;;;10.15;6.20;;;;;;;2.05;88.24;100135.88;10256735;28;20118;-75
2024/01/11 13:34:42;;;;;;;11.73;6.85;;;;;;;1.89;89.07;100135.41;10254171;29;20047;-75
2024/01/11 13:39:43;;;;;;;9.75;6.07;;;;;;;1.67;89.64;100141.44;10255659;28;20047;-75
2024/01/11 13:44:44;;;;;;;11.10;6.57;;;;;;;1.17;90.70;100085.88;10255710;29;20126;-75
2024/01/11 13:49:45;;;;;;;8.98;5.20;;;;;;;1.14;90.84;100113.09;10255507;28;20110;-74
2024/01/11 13:54:46;;;;;;;8.05;5.15;;;;;;;0.66;91.35;100060.81;10253985;29;20535;-74
2024/01/11 13:59:47;;;;;;;27.23;5.97;;;;;;;0.49;92.52;100055.97;10254544;29;20051;-75
2024/01/11 14:04:48;;;;;;;13.13;7.15;;;;;;;0.61;92.58;100101.31;10254558;29;20077;-74
2024/01/11 14:09:49;;;;;;;12.00;6.60;;;;;;;0.32;92.98;100095.53;10254273;28;20051;-74
2024/01/11 14:14:50;;;;;;;12.48;7.13;;;;;;;-0.05;93.58;100054.56;10254761;29;20043;-74
2024/01/11 14:19:50;;;;;;;14.13;7.18;;;;;;;0.12;94.21;100087.34;10254485;29;20082;-74
2024/01/11 14:24:51;;;;;;;12.95;6.40;;;;;;;-0.27;94.50;100026.50;10254124;29;20047;-74
2024/01/11 14:29:52;;;;;;;15.45;7.03;;;;;;;-0.13;94.83;100069.91;10238633;29;20047;-74
2024/01/11 14:34:53;;;;;;;16.55;8.65;;;;;;;-0.30;95.72;100054.56;10247295;29;20047;-74
2024/01/11 14:39:53;;;;;;;14.00;6.82;;;;;;;-0.40;96.82;100064.00;10254786;28;20047;-75
2024/01/11 14:44:54;;;;;;;15.63;7.75;;;;;;;-0.54;96.52;100063.16;10254280;28;20058;-74
2024/01/11 14:49:55;;;;;;;13.73;8.70;;;;;;;-0.60;96.58;100074.03;10254393;29;20047;-74
2024/01/11 14:54:56;;;;;;;15.02;8.98;;;;;;;-0.64;97.35;100069.09;10253343;29;20047;-73
2024/01/11 14:59:57;;;;;;;17.60;9.90;;;;;;;-0.60;97.25;100057.50;10252931;28;20082;-74
2024/01/11 15:04:59;;;;;;;12.68;7.93;;;;;;;-0.78;97.41;100055.22;10253122;28;20035;-74
2024/01/11 15:10:00;;;;;;;12.65;7.55;;;;;;;-0.93;97.92;100045.78;10246696;28;20058;-75
2024/01/11 15:15:01;;;;;;;22.13;8.07;;;;;;;-1.02;99.36;100041.19;10227456;28;20052;-75
2024/01/11 15:20:03;;;;;;;14.80;7.47;;;;;;;-1.47;98.63;99978.94;10240969;28;20389;-76
2024/01/11 15:25:04;;;;;;;15.00;8.02;;;;;;;-1.30;98.74;100021.31;10251948;28;20049;-74
2024/01/11 15:30:05;;;;;;;29.58;13.98;;;;;;;-1.29;99.08;100007.34;10250781;28;20054;-75
2024/01/11 15:35:11;;;;;;;54.80;22.95;;;;;;;-1.60;99.65;99962.47;10241125;29;20043;-73
2024/01/11 15:40:12;;;;;;;43.05;20.80;;;;;;;-1.80;99.60;99958.53;10246112;28;20127;-71
2024/01/11 15:45:13;;;;;;;28.35;14.45;;;;;;;-1.61;99.75;99997.25;10246429;28;20086;-75
2024/01/11 15:50:14;;;;;;;27.77;15.70;;;;;;;-1.69;99.67;99989.09;10239643;29;20117;-75
2024/01/11 15:55:15;;;;;;;33.70;17.48;;;;;;;-1.69;99.79;99989.94;10244233;28;20094;-75
2024/01/11 16:00:16;;;;;;;35.28;16.95;;;;;;;-1.75;99.69;99973.88;10240001;28;20044;-74
2024/01/11 16:05:17;;;;;;;30.35;14.45;;;;;;;-1.79;99.73;99956.78;10242461;28;20051;-75
2024/01/11 16:10:18;;;;;;;27.20;13.10;;;;;;;-2.30;99.89;99881.94;10241374;28;20549;-74
2024/01/11 16:15:20;;;;;;;29.92;13.82;;;;;;;-1.83;100.00;99969.97;10245799;28;20035;-75
2024/01/11 16:20:21;;;;;;;24.42;12.73;;;;;;;-2.10;99.91;99940.50;10249571;28;20423;-74
2024/01/11 16:25:22;;;;;;;27.00;12.30;;;;;;;-1.95;100.00;99962.94;10251705;28;20040;-76
2024/01/11 16:30:22;;;;;;;20.38;10.95;;;;;;;-2.53;99.81;99886.81;10245353;28;20133;-71
2024/01/11 16:35:23;;;;;;;23.90;11.40;;;;;;;-2.19;100.00;99959.31;10255365;28;20043;-74
2024/01/11 16:40:24;;;;;;;27.25;13.15;;;;;;;-2.13;100.00;99949.34;10254487;28;20063;-73
2024/01/11 16:45:25;;;;;;;33.80;15.38;;;;;;;-2.25;100.00;99944.91;10256629;29;20039;-74
2024/01/11 16:50:26;;;;;;;31.30;13.88;;;;;;;-2.36;100.00;99932.59;10256943;28;20050;-74
2024/01/11 16:55:27;;;;;;;26.45;13.02;;;;;;;-2.52;99.59;99921.44;10257058;28;20170;-74
2024/01/11 17:00:28;;;;;;;23.60;10.88;;;;;;;-2.49;100.00;99918.66;10257242;28;20127;-74
2024/01/11 17:05:29;;;;;;;19.95;9.50;;;;;;;-2.49;100.00;99908.25;10257713;28;20043;-74
2024/01/11 17:10:29;;;;;;;14.38;8.10;;;;;;;-2.41;100.00;99898.22;10257955;29;20039;-74
2024/01/11 17:15:30;;;;;;;23.40;9.98;;;;;;;-2.22;100.00;99897.88;10256589;29;20047;-73
2024/01/11 17:20:31;;;;;;;21.50;9.65;;;;;;;-2.17;100.00;99887.19;10257030;28;20389;-73
2024/01/11 17:25:32;;;;;;;21.42;10.30;;;;;;;-2.11;100.00;99890.22;10256986;29;20539;-73
2024/01/11 17:30:32;;;;;;;21.02;9.27;;;;;;;-2.35;100.00;99866.59;10257084;28;20062;-73
2024/01/11 17:35:33;;;;;;;19.08;7.93;;;;;;;-2.33;100.00;99856.13;10255707;28;20047;-73
2024/01/11 17:40:35;;;;;;;17.45;8.30;;;;;;;-2.20;100.00;99849.19;10256160;29;20052;-73
2024/01/11 17:45:37;;;;;;;17.23;7.78;;;;;;;-2.18;100.00;99849.09;10255415;28;20043;-76
2024/01/11 17:50:39;;;;;;;14.63;7.93;;;;;;;-2.43;100.00;99824.63;10255980;29;20113;-73
2024/01/11 17:55:39;;;;;;;13.90;7.45;;;;;;;-2.43;100.00;99835.03;10255991;29;20063;-73
2024/01/11 18:00:40;;;;;;;17.13;7.60;;;;;;;-2.40;100.00;99840.03;10253898;29;20074;-73
2024/01/11 18:05:41;;;;;;;18.33;7.22;;;;;;;-2.37;100.00;99855.47;10254836;28;20066;-73
2024/01/11 18:10:42;;;;;;;14.88;7.25;;;;;;;-2.55;100.00;99835.81;10254182;29;20047;-73
2024/01/11 18:15:43;;;;;;;17.25;8.43;;;;;;;-2.66;100.00;99825.25;10255653;28;20039;-73
2024/01/11 18:20:43;;;;;;;15.50;8.07;;;;;;;-3.05;100.00;99757.50;10255507;28;20050;-72
2024/01/11 18:25:44;;;;;;;19.55;8.35;;;;;;;-2.74;100.00;99812.75;10254123;29;20495;-72
2024/01/11 18:30:46;;;;;;;19.15;8.80;;;;;;;-2.76;100.00;99820.63;10254007;29;20411;-74
2024/01/11 18:35:47;;;;;;;19.88;9.07;;;;;;;-2.59;100.00;99819.59;10255179;28;20055;-74
2024/01/11 18:40:49;;;;;;;19.17;9.98;;;;;;;-2.57;100.00;99801.31;10252185;29;20575;-74
2024/01/11 18:45:50;;;;;;;20.13;8.55;;;;;;;-2.78;100.00;99754.94;10254374;28;20098;-74
2024/01/11 18:50:50;;;;;;;43.85;10.25;;;;;;;-2.44;100.00;99817.78;10252850;29;20566;-74
2024/01/11 18:55:56;;;;;;;20.45;8.45;;;;;;;-2.65;100.00;99791.38;10253084;28;20035;-74
2024/01/11 19:00:57;;;;;;;19.88;8.52;;;;;;;-2.53;100.00;99807.97;10253098;29;20051;-74
2024/01/11 19:05:57;;;;;;;38.05;7.90;;;;;;;-2.87;100.00;99755.50;10248308;28;20104;-75
2024/01/11 19:10:59;;;;;;;26.15;8.15;;;;;;;-2.68;100.00;99788.97;10252423;29;20090;-75
2024/01/11 19:16:00;;;;;;;14.98;7.60;;;;;;;-2.75;100.00;99790.28;10252611;28;20458;-75
2024/01/11 19:21:01;;;;;;;13.13;6.97;;;;;;;-2.71;100.00;99794.38;10252691;28;20047;-75
2024/01/11 19:26:02;;;;;;;17.40;7.22;;;;;;;-2.74;100.00;99789.34;10251955;29;20500;-75
2024/01/11 19:31:04;;;;;;;15.75;6.95;;;;;;;-2.92;100.00;99778.34;10251478;29;20057;-75
2024/01/11 19:36:05;;;;;;;18.38;8.30;;;;;;;-3.03;100.00;99760.00;10251505;29;20408;-75
2024/01/11 19:41:06;;;;;;;22.02;8.82;;;;;;;-3.12;100.00;99752.78;10251798;29;20066;-75
2024/01/11 19:46:06;;;;;;;25.67;11.10;;;;;;;-2.87;100.00;99784.09;10250784;29;20047;-75
2024/01/11 19:51:10;;;;;;;29.48;12.10;;;;;;;-2.90;100.00;99775.63;10251903;28;20132;-75
2024/01/11 19:56:18;;;;;;;27.02;10.90;;;;;;;-3.06;100.00;99757.59;10251292;28;20133;-75
2024/01/11 20:01:19;;;;;;;23.70;9.45;;;;;;;-3.32;100.00;99720.22;10251199;28;20039;-75
2024/01/11 20:06:20;;;;;;;22.23;9.30;;;;;;;-3.29;100.00;99722.63;10252703;28;20421;-75
2024/01/11 20:11:21;;;;;;;21.42;10.20;;;;;;;-3.08;100.00;99762.03;10258578;29;20084;-75
2024/01/11 20:16:22;;;;;;;19.95;8.20;;;;;;;-3.38;100.00;99746.56;10259646;28;20067;-75
2024/01/11 20:21:23;;;;;;;18.13;8.60;;;;;;;-3.63;100.00;99735.09;10258777;28;20071;-75
2024/01/11 20:26:23;;;;;;;16.63;8.55;;;;;;;-3.56;100.00;99764.13;10259444;29;20074;-75
2024/01/11 20:31:26;;;;;;;16.95;8.75;;;;;;;-3.57;100.00;99767.66;10258918;29;20519;-75
2024/01/11 20:36:28;;;;;;;21.20;8.93;;;;;;;-3.59;100.00;99761.69;10258199;29;20503;-76
2024/01/11 20:41:28;;;;;;;16.25;8.13;;;;;;;-3.62;100.00;99752.38;10258143;29;20126;-75
2024/01/11 20:46:29;;;;;;;17.63;9.10;;;;;;;-3.78;100.00;99730.84;10258093;29;20070;-75
2024/01/11 20:51:30;;;;;;;18.05;9.18;;;;;;;-4.10;100.00;99680.84;10258218;29;20051;-75
2024/01/11 20:56:32;;;;;;;17.88;8.73;;;;;;;-4.40;100.00;99629.88;10258691;29;20039;-76
2024/01/11 21:01:33;;;;;;;17.60;8.52;;;;;;;-3.81;100.00;99712.84;10257908;29;20078;-75
2024/01/11 21:06:33;;;;;;;24.98;9.95;;;;;;;-3.90;100.00;99706.44;10256720;29;20043;-75
2024/01/11 21:11:34;;;;;;;23.23;9.95;;;;;;;-3.96;100.00;99704.22;10257829;29;20055;-76
2024/01/11 21:16:35;;;;;;;23.67;10.50;;;;;;;-4.21;100.00;99713.47;10257856;29;20126;-76
2024/01/11 21:21:39;;;;;;;19.73;9.38;;;;;;;-4.23;100.00;99698.91;10254056;28;20090;-76
2024/01/11 21:26:42;;;;;;;21.90;9.32;;;;;;;-4.28;100.00;99698.34;10257131;28;20043;-75
2024/01/11 21:31:43;;;;;;;25.27;11.00;;;;;;;-4.46;100.00;99682.09;10256032;29;20070;-75
2024/01/11 21:36:43;;;;;;;23.30;10.52;;;;;;;-4.55;100.00;99686.03;10256738;28;20075;-76
2024/01/11 21:41:44;;;;;;;23.08;9.85;;;;;;;-4.75;100.00;99666.47;10256285;28;20055;-76
2024/01/11 21:46:45;;;;;;;16.88;8.93;;;;;;;-4.75;100.00;99630.19;10256343;29;20309;-75
2024/01/11 21:51:48;;;;;;;17.88;8.57;;;;;;;-4.47;100.00;99668.31;10255683;29;20046;-76
2024/01/11 21:56:49;;;;;;;17.48;8.85;;;;;;;-4.54;100.00;99659.22;10256213;29;20492;-76
2024/01/11 22:01:50;;;;;;;15.35;7.82;;;;;;;-4.41;100.00;99661.94;10255158;28;20043;-76
2024/01/11 22:06:51;;;;;;;19.67;9.00;;;;;;;-4.49;100.00;99658.94;10254841;29;20408;-75
2024/01/11 22:11:52;;;;;;;19.02;9.00;;;;;;;-4.40;100.00;99648.03;10255472;29;20407;-75
2024/01/11 22:16:52;;;;;;;23.55;10.07;;;;;;;-4.63;100.00;99588.03;10254962;29;20057;-75
2024/01/11 22:21:53;;;;;;;19.80;9.30;;;;;;;-4.80;100.00;99575.22;10254886;28;20051;-75
2024/01/11 22:26:53;;;;;;;21.35;9.13;;;;;;;-4.55;100.00;99626.44;10254161;29;20081;-75
2024/01/11 22:31:54;;;;;;;27.58;13.40;;;;;;;-4.45;100.00;99612.03;10254089;28;20035;-75
2024/01/11 22:36:55;;;;;;;31.08;12.40;;;;;;;-4.47;100.00;99579.34;10253640;28;20043;-75
2024/01/11 22:41:56;;;;;;;29.65;11.90;;;;;;;-4.50;100.00;99575.16;10254023;28;20090;-76
2024/01/11 22:46:57;;;;;;;25.10;11.15;;;;;;;-4.45;100.00;99591.28;10253350;28;20431;-75